createdAt,value
2023-01-25T00:16:44.897Z,1026.24
2023-01-25T00:16:50.092Z,1026.00
2023-01-25T00:17:50.107Z,1025.98
2023-01-25T00:18:50.094Z,1025.97
2023-01-25T00:19:50.060Z,1025.98
2023-01-25T00:20:50.064Z,1025.98
2023-01-25T00:21:50.185Z,1025.97
2023-01-25T00:22:50.101Z,1025.97
2023-01-25T00:23:50.105Z,1025.95
2023-01-25T00:24:49.989Z,1025.96
2023-01-25T00:25:49.987Z,1025.95
2023-01-25T00:26:50.022Z,1025.96
2023-01-25T00:27:50.017Z,1025.97
2023-01-25T00:28:49.971Z,1025.96
2023-01-25T00:29:49.931Z,1025.95
2023-01-25T00:30:49.906Z,1025.93
2023-01-25T00:31:50.146Z,1025.93
2023-01-25T00:32:50.392Z,1025.93
2023-01-25T00:33:50.019Z,1025.91
2023-01-25T00:34:49.833Z,1025.91
2023-01-25T00:35:49.880Z,1025.90
2023-01-25T00:36:49.882Z,1025.89
2023-01-25T00:37:49.992Z,1025.87
2023-01-25T00:38:49.935Z,1025.86
2023-01-25T00:39:49.891Z,1025.86
2023-01-25T00:40:49.952Z,1025.85
2023-01-25T00:41:49.888Z,1025.86
2023-01-25T00:42:49.854Z,1025.84
2023-01-25T00:43:49.799Z,1025.83
2023-01-25T01:15:10.538Z,1025.84
2023-01-25T01:15:21.860Z,1025.75
2023-01-25T01:16:20.458Z,1025.74
2023-01-25T01:17:20.476Z,1025.74
2023-01-25T01:18:20.584Z,1025.74
2023-01-25T01:19:22.325Z,1025.75
2023-01-25T01:20:22.254Z,1025.76
2023-01-25T01:21:20.868Z,1025.75
2023-01-25T01:22:20.496Z,1025.76
2023-01-25T01:23:22.228Z,1025.75
2023-01-25T01:24:21.943Z,1025.74
2023-01-25T01:25:21.182Z,1025.73
2023-01-25T01:26:21.960Z,1025.75
2023-01-25T01:27:20.605Z,1025.76
2023-01-25T01:28:21.244Z,1025.76
2023-01-25T01:29:22.198Z,1025.73
2023-01-25T01:30:20.353Z,1025.73
2023-01-25T01:31:21.951Z,1025.73
2023-01-25T01:32:22.405Z,1025.73
2023-01-25T01:33:21.504Z,1025.72
2023-01-25T01:34:22.222Z,1025.73
2023-01-25T01:35:22.425Z,1025.73
2023-01-25T01:36:22.287Z,1025.72
2023-01-25T01:37:20.533Z,1025.71
2023-01-25T01:38:22.147Z,1025.69
2023-01-25T01:39:20.783Z,1025.67
2023-01-25T03:55:34.075Z,1025.67
2023-01-25T03:55:41.136Z,1025.02
2023-01-25T03:56:39.232Z,1025.02
2023-01-25T03:57:41.814Z,1025.02
2023-01-25T03:58:40.511Z,1025.03
2023-01-25T03:59:40.241Z,1025.04
2023-01-25T04:00:41.185Z,1025.04
2023-01-25T04:01:41.147Z,1025.03
2023-01-25T04:02:39.277Z,1025.02
2023-01-25T04:08:13.424Z,1025.02
2023-01-25T06:23:37.490Z,1025.00
2023-01-25T06:23:45.358Z,1024.23
2023-01-25T06:24:44.456Z,1024.23
2023-01-25T06:25:44.139Z,1024.23
2023-01-25T09:13:15.200Z,1023.93
2023-01-25T09:14:15.357Z,1023.93
2023-01-25T09:15:15.379Z,1023.92
2023-01-25T09:16:15.453Z,1023.92
2023-01-25T09:17:15.695Z,1023.91
2023-01-25T09:18:15.337Z,1023.91
2023-01-25T09:19:15.339Z,1023.89
2023-01-25T09:20:15.594Z,1023.87
2023-01-25T09:21:15.290Z,1023.85
2023-01-25T09:22:15.499Z,1023.84
2023-01-25T09:23:16.061Z,1023.84
2023-01-25T09:24:15.272Z,1023.84
2023-01-25T09:25:15.293Z,1023.83
2023-01-25T09:26:15.238Z,1023.80
2023-01-25T09:27:16.207Z,1023.80
2023-01-25T09:28:15.211Z,1023.78
2023-01-25T09:29:15.278Z,1023.76
2023-01-25T09:30:19.061Z,1023.74
2023-01-25T09:31:22.001Z,1023.74
2023-01-25T09:32:15.309Z,1023.73
2023-01-25T09:33:15.187Z,1023.74
2023-01-25T09:34:15.173Z,1023.75
2023-01-25T09:35:15.315Z,1023.74
2023-01-25T09:36:15.746Z,1023.74
2023-01-25T09:37:15.125Z,1023.73
2023-01-25T09:38:15.115Z,1023.72
2023-01-25T09:39:15.120Z,1023.72
2023-01-25T09:40:15.137Z,1023.71
2023-01-25T09:41:15.094Z,1023.72
2023-01-25T09:42:15.707Z,1023.72
2023-01-25T09:43:15.073Z,1023.73
2023-01-25T09:44:15.444Z,1023.74
2023-01-25T09:45:15.099Z,1023.75
2023-01-25T09:46:15.077Z,1023.76
2023-01-25T09:47:15.081Z,1023.76
2023-01-25T09:48:15.010Z,1023.77
2023-01-25T09:49:15.088Z,1023.77
2023-01-25T09:50:14.997Z,1023.76
2023-01-25T09:51:15.003Z,1023.76
2023-01-25T09:52:15.012Z,1023.76
2023-01-25T09:53:15.053Z,1023.74
2023-01-25T09:54:16.857Z,1023.76
2023-01-25T09:55:15.004Z,1023.75
2023-01-25T09:56:14.934Z,1023.75
2023-01-25T09:57:14.940Z,1023.76
2023-01-25T09:58:14.949Z,1023.76
2023-01-25T09:59:14.914Z,1023.75
2023-01-25T10:00:14.919Z,1023.75
2023-01-25T10:01:15.093Z,1023.74
2023-01-25T10:02:14.916Z,1023.74
2023-01-25T10:03:14.947Z,1023.73
2023-01-25T10:04:14.961Z,1023.71
2023-01-25T10:05:14.867Z,1023.70
2023-01-25T10:06:14.852Z,1023.69
2023-01-25T10:07:14.836Z,1023.69
2023-01-25T10:08:14.835Z,1023.68
2023-01-25T10:09:14.839Z,1023.67
2023-01-25T10:10:14.809Z,1023.66
2023-01-25T10:11:14.801Z,1023.66
2023-01-25T10:12:14.793Z,1023.65
2023-01-25T10:13:14.776Z,1023.64
2023-01-25T10:14:14.773Z,1023.65
2023-01-25T10:15:14.763Z,1023.63
2023-01-25T10:16:24.556Z,1023.64
2023-01-25T10:17:14.746Z,1023.63
2023-01-25T10:18:14.732Z,1023.64
2023-01-25T10:19:14.732Z,1023.63
2023-01-25T10:20:14.713Z,1023.61
2023-01-25T10:21:14.701Z,1023.61
2023-01-25T10:22:14.693Z,1023.59
2023-01-25T10:23:14.670Z,1023.59
2023-01-25T10:24:14.750Z,1023.58
2023-01-25T10:25:14.679Z,1023.57
2023-01-25T10:26:14.646Z,1023.57
2023-01-25T10:27:14.656Z,1023.55
2023-01-25T10:28:14.632Z,1023.53
2023-01-25T10:29:14.639Z,1023.51
2023-01-25T10:30:14.621Z,1023.49
2023-01-25T10:31:14.820Z,1023.48
2023-01-25T10:32:14.645Z,1023.48
2023-01-25T10:33:14.593Z,1023.46
2023-01-25T10:34:14.562Z,1023.46
2023-01-25T10:35:19.976Z,1023.43
2023-01-25T10:36:14.569Z,1023.42
2023-01-25T10:37:14.623Z,1023.40
2023-01-25T10:38:14.543Z,1023.38
2023-01-25T10:39:14.518Z,1023.38
2023-01-25T10:40:14.500Z,1023.33
2023-01-25T10:41:15.284Z,1023.31
2023-01-25T10:42:14.512Z,1023.29
2023-01-25T10:43:14.467Z,1023.25
2023-01-25T10:44:14.564Z,1023.24
2023-01-25T10:45:14.468Z,1023.22
2023-01-25T10:46:14.491Z,1023.20
2023-01-25T10:47:14.437Z,1023.20
2023-01-25T10:48:14.475Z,1023.20
2023-01-25T10:49:14.406Z,1023.17
2023-01-25T10:50:14.591Z,1023.15
2023-01-25T10:51:14.396Z,1023.13
2023-01-25T10:52:14.381Z,1023.10
2023-01-25T10:53:14.416Z,1023.08
2023-01-25T10:54:14.381Z,1023.05
2023-01-25T10:55:14.380Z,1023.03
2023-01-25T10:56:14.347Z,1023.00
2023-01-25T10:57:14.349Z,1022.98
2023-01-25T10:58:15.220Z,1022.95
2023-01-25T10:59:14.371Z,1022.92
2023-01-25T11:00:14.361Z,1022.91
2023-01-25T11:01:14.309Z,1022.89
2023-01-25T11:02:14.298Z,1022.87
2023-01-25T11:03:14.292Z,1022.85
2023-01-25T11:04:14.300Z,1022.85
2023-01-25T11:05:14.278Z,1022.84
2023-01-25T11:06:14.334Z,1022.83
2023-01-25T11:07:14.349Z,1022.81
2023-01-25T11:08:14.307Z,1022.79
2023-01-25T11:09:14.227Z,1022.77
2023-01-25T11:10:14.255Z,1022.75
2023-01-25T11:11:14.197Z,1022.73
2023-01-25T11:12:14.362Z,1022.72
2023-01-25T11:13:14.191Z,1022.72
2023-01-25T11:14:14.164Z,1022.71
2023-01-25T11:15:14.163Z,1022.69
2023-01-25T11:16:14.258Z,1022.68
2023-01-25T11:17:14.235Z,1022.65
2023-01-25T11:18:14.200Z,1022.63
2023-01-25T11:19:16.096Z,1022.60
2023-01-25T11:20:14.190Z,1022.57
2023-01-25T11:21:14.166Z,1022.56
2023-01-25T11:22:14.111Z,1022.54
2023-01-25T11:23:14.072Z,1022.53
2023-01-25T11:24:14.138Z,1022.53
2023-01-25T11:25:14.052Z,1022.50
2023-01-25T11:26:14.095Z,1022.51
2023-01-25T11:27:14.057Z,1022.49
2023-01-25T11:28:14.033Z,1022.50
2023-01-25T11:29:14.047Z,1022.50
2023-01-25T11:30:14.175Z,1022.49
2023-01-25T11:31:14.136Z,1022.47
2023-01-25T11:32:14.034Z,1022.46
2023-01-25T11:33:13.972Z,1022.46
2023-01-25T11:34:13.980Z,1022.44
2023-01-25T11:35:14.016Z,1022.44
2023-01-25T11:36:13.948Z,1022.42
2023-01-25T11:37:13.955Z,1022.41
2023-01-25T11:38:13.956Z,1022.40
2023-01-25T11:39:13.921Z,1022.38
2023-01-25T11:40:13.985Z,1022.36
2023-01-25T11:41:13.907Z,1022.36
2023-01-25T11:42:13.890Z,1022.33
2023-01-25T11:43:13.941Z,1022.32
2023-01-25T11:44:13.871Z,1022.30
2023-01-25T11:45:13.881Z,1022.27
2023-01-25T11:46:13.907Z,1022.26
2023-01-25T11:47:13.959Z,1022.24
2023-01-25T11:48:13.846Z,1022.23
2023-01-25T11:49:13.842Z,1022.20
2023-01-25T11:50:13.916Z,1022.19
2023-01-25T11:51:13.800Z,1022.16
2023-01-25T11:52:13.801Z,1022.15
2023-01-25T11:53:13.800Z,1022.14
2023-01-25T11:54:13.769Z,1022.11
2023-01-25T11:55:13.812Z,1022.10
2023-01-25T11:56:13.758Z,1022.12
2023-01-25T11:57:13.726Z,1022.10
2023-01-25T11:58:14.539Z,1022.08
2023-01-25T11:59:13.745Z,1022.05
2023-01-25T12:00:13.735Z,1022.02
2023-01-25T12:01:13.715Z,1021.99
2023-01-25T12:02:13.731Z,1021.97
2023-01-25T12:03:15.973Z,1021.94
2023-01-25T12:04:13.761Z,1021.91
2023-01-25T12:05:21.553Z,1021.89
2023-01-25T12:06:13.830Z,1021.87
2023-01-25T12:07:13.657Z,1021.85
2023-01-25T12:08:13.660Z,1021.82
2023-01-25T12:09:13.633Z,1021.80
2023-01-25T12:10:13.622Z,1021.78
2023-01-25T12:11:13.645Z,1021.76
2023-01-25T12:12:13.602Z,1021.76
2023-01-25T12:13:13.759Z,1021.76
2023-01-25T12:14:13.603Z,1021.76
2023-01-25T12:15:13.556Z,1021.76
2023-01-25T12:16:14.313Z,1021.73
2023-01-25T12:17:13.575Z,1021.70
2023-01-25T12:18:13.575Z,1021.67
2023-01-25T12:19:13.653Z,1021.66
2023-01-25T12:20:13.563Z,1021.63
2023-01-25T12:21:19.952Z,1021.61
2023-01-25T12:22:13.500Z,1021.58
2023-01-25T12:23:13.517Z,1021.55
2023-01-25T12:24:13.646Z,1021.52
2023-01-25T12:25:13.497Z,1021.48
2023-01-25T12:26:13.509Z,1021.46
2023-01-25T12:27:13.448Z,1021.44
2023-01-25T12:28:13.428Z,1021.43
2023-01-25T12:29:13.423Z,1021.41
2023-01-25T12:30:13.495Z,1021.38
2023-01-25T12:31:13.489Z,1021.34
2023-01-25T12:32:13.428Z,1021.31
2023-01-25T12:33:14.681Z,1021.28
2023-01-25T12:34:13.379Z,1021.25
2023-01-25T12:35:13.408Z,1021.24
2023-01-25T12:36:13.370Z,1021.22
2023-01-25T12:37:13.381Z,1021.21
2023-01-25T12:38:13.370Z,1021.20
2023-01-25T12:39:13.329Z,1021.17
2023-01-25T12:40:13.464Z,1021.17
2023-01-25T12:41:13.381Z,1021.16
2023-01-25T12:42:13.803Z,1021.15
2023-01-25T12:43:13.294Z,1021.14
2023-01-25T12:44:13.296Z,1021.13
2023-01-25T12:45:13.314Z,1021.12
2023-01-25T12:46:13.263Z,1021.12
2023-01-25T12:47:15.017Z,1021.10
2023-01-25T12:48:13.239Z,1021.08
2023-01-25T12:49:13.245Z,1021.08
2023-01-25T12:50:13.264Z,1021.06
2023-01-25T12:51:13.218Z,1021.05
2023-01-25T12:52:13.277Z,1021.03
2023-01-25T12:53:13.203Z,1021.00
2023-01-25T12:54:13.234Z,1020.99
2023-01-25T12:55:13.185Z,1020.97
2023-01-25T12:56:13.172Z,1020.97
2023-01-25T12:57:13.183Z,1020.95
2023-01-25T12:58:13.143Z,1020.94
2023-01-25T12:59:13.129Z,1020.94
2023-01-25T13:00:13.327Z,1020.93
2023-01-25T13:01:13.122Z,1020.90
2023-01-25T13:02:13.194Z,1020.88
2023-01-25T13:03:13.132Z,1020.85
2023-01-25T13:04:13.079Z,1020.84
2023-01-25T13:05:13.064Z,1020.81
2023-01-25T13:06:13.052Z,1020.80
2023-01-25T13:07:13.071Z,1020.78
2023-01-25T13:08:23.094Z,1020.78
2023-01-25T13:09:13.317Z,1020.77
2023-01-25T13:10:13.263Z,1020.75
2023-01-25T13:11:13.211Z,1020.75
2023-01-25T13:12:13.047Z,1020.74
2023-01-25T13:13:12.990Z,1020.73
2023-01-25T13:14:12.993Z,1020.72
2023-01-25T13:15:12.965Z,1020.70
2023-01-25T13:16:12.979Z,1020.68
2023-01-25T13:17:12.972Z,1020.64
2023-01-25T13:18:12.932Z,1020.61
2023-01-25T13:19:12.954Z,1020.58
2023-01-25T13:20:13.214Z,1020.55
2023-01-25T13:21:12.934Z,1020.51
2023-01-25T13:22:12.960Z,1020.49
2023-01-25T13:23:12.971Z,1020.46
2023-01-25T13:24:13.000Z,1020.45
2023-01-25T13:25:12.898Z,1020.43
2023-01-25T13:26:12.867Z,1020.43
2023-01-25T13:27:12.911Z,1020.42
2023-01-25T13:28:12.860Z,1020.39
2023-01-25T13:29:13.639Z,1020.37
2023-01-25T13:30:13.041Z,1020.37
2023-01-25T13:31:12.899Z,1020.34
2023-01-25T13:32:12.903Z,1020.31
2023-01-25T13:33:12.791Z,1020.31
2023-01-25T13:34:12.824Z,1020.29
2023-01-25T13:35:12.768Z,1020.28
2023-01-25T13:36:12.787Z,1020.27
2023-01-25T13:37:12.839Z,1020.26
2023-01-25T13:38:12.951Z,1020.27
2023-01-25T13:39:12.726Z,1020.26
2023-01-25T13:40:13.133Z,1020.26
2023-01-25T13:41:12.708Z,1020.25
2023-01-25T13:42:12.694Z,1020.25
2023-01-25T13:43:12.765Z,1020.25
2023-01-25T13:44:12.723Z,1020.23
2023-01-25T13:45:12.675Z,1020.23
2023-01-25T13:46:12.657Z,1020.22
2023-01-25T13:47:12.650Z,1020.20
2023-01-25T13:48:12.684Z,1020.19
2023-01-25T13:49:12.665Z,1020.16
2023-01-25T13:50:12.994Z,1020.15
2023-01-25T13:51:12.610Z,1020.13
2023-01-25T13:52:12.593Z,1020.13
2023-01-25T13:53:12.637Z,1020.12
2023-01-25T13:54:12.615Z,1020.12
2023-01-25T13:55:12.562Z,1020.13
2023-01-25T13:56:12.596Z,1020.13
2023-01-25T13:57:13.572Z,1020.11
2023-01-25T13:58:12.599Z,1020.09
2023-01-25T13:59:12.601Z,1020.07
2023-01-25T14:00:13.061Z,1020.05
2023-01-25T14:01:12.554Z,1020.05
2023-01-25T14:02:12.832Z,1020.03
2023-01-25T14:03:12.486Z,1020.03
2023-01-25T14:04:12.490Z,1020.02
2023-01-25T14:05:12.692Z,1020.00
2023-01-25T14:06:12.456Z,1020.00
2023-01-25T14:07:12.503Z,1019.97
2023-01-25T14:08:12.478Z,1019.95
2023-01-25T14:09:16.331Z,1019.94
2023-01-25T14:10:12.726Z,1019.92
2023-01-25T14:11:12.424Z,1019.91
2023-01-25T14:12:12.446Z,1019.88
2023-01-25T14:13:12.405Z,1019.86
2023-01-25T14:14:12.537Z,1019.85
2023-01-25T14:15:12.412Z,1019.85
2023-01-25T14:16:12.428Z,1019.83
2023-01-25T14:17:12.355Z,1019.83
2023-01-25T14:18:13.329Z,1019.83
2023-01-25T14:19:12.356Z,1019.80
2023-01-25T14:20:12.328Z,1019.80
2023-01-25T14:21:12.331Z,1019.79
2023-01-25T14:22:12.315Z,1019.79
2023-01-25T14:23:12.314Z,1019.79
2023-01-25T14:24:12.357Z,1019.79
2023-01-25T14:25:12.307Z,1019.79
2023-01-25T14:26:12.359Z,1019.77
2023-01-25T14:27:12.310Z,1019.75
2023-01-25T14:28:12.254Z,1019.74
2023-01-25T14:29:19.022Z,1019.72
2023-01-25T14:30:12.425Z,1019.71
2023-01-25T14:31:12.336Z,1019.70
2023-01-25T14:32:12.243Z,1019.67
2023-01-25T14:33:12.217Z,1019.65
2023-01-25T14:34:12.529Z,1019.62
2023-01-25T14:35:12.175Z,1019.60
2023-01-25T14:36:24.608Z,1019.58
2023-01-25T14:37:12.186Z,1019.55
2023-01-25T14:38:12.180Z,1019.52
2023-01-25T14:39:12.157Z,1019.49
2023-01-25T14:40:12.309Z,1019.47
2023-01-25T14:41:12.127Z,1019.45
2023-01-25T14:42:12.131Z,1019.42
2023-01-25T14:43:12.134Z,1019.41
2023-01-25T14:44:13.115Z,1019.39
2023-01-25T14:45:12.082Z,1019.38
2023-01-25T14:46:12.092Z,1019.37
2023-01-25T14:47:12.105Z,1019.37
2023-01-25T14:48:12.115Z,1019.36
2023-01-25T14:49:12.101Z,1019.35
2023-01-25T14:50:12.307Z,1019.33
2023-01-25T14:51:12.099Z,1019.32
2023-01-25T14:52:12.153Z,1019.30
2023-01-25T14:53:12.013Z,1019.28
2023-01-25T14:54:12.012Z,1019.27
2023-01-25T14:55:12.019Z,1019.25
2023-01-25T14:56:12.041Z,1019.25
2023-01-25T14:57:11.982Z,1019.25
2023-01-25T14:58:12.265Z,1019.25
2023-01-25T14:59:11.950Z,1019.25
2023-01-25T15:00:12.340Z,1019.25
2023-01-25T15:01:11.951Z,1019.25
2023-01-25T15:02:12.024Z,1019.25
2023-01-25T15:03:11.922Z,1019.24
2023-01-25T15:04:11.945Z,1019.23
2023-01-25T15:05:15.897Z,1019.24
2023-01-25T15:06:11.923Z,1019.23
2023-01-25T15:07:17.905Z,1019.22
2023-01-25T15:08:11.895Z,1019.20
2023-01-25T15:09:11.861Z,1019.19
2023-01-25T15:10:12.071Z,1019.18
2023-01-25T15:11:11.922Z,1019.15
2023-01-25T15:12:11.846Z,1019.14
2023-01-25T15:13:14.856Z,1019.11
2023-01-25T15:14:11.860Z,1019.09
2023-01-25T15:15:11.807Z,1019.08
2023-01-25T15:16:11.848Z,1019.07
2023-01-25T15:17:11.785Z,1019.06
2023-01-25T15:18:11.808Z,1019.06
2023-01-25T15:19:11.774Z,1019.04
2023-01-25T15:20:12.028Z,1019.03
2023-01-25T15:21:11.760Z,1019.02
2023-01-25T15:22:11.724Z,1018.99
2023-01-25T15:23:11.739Z,1018.98
2023-01-25T15:24:11.795Z,1018.97
2023-01-25T15:25:15.657Z,1018.95
2023-01-25T15:26:11.703Z,1018.95
2023-01-25T15:27:11.662Z,1018.94
2023-01-25T15:28:11.691Z,1018.92
2023-01-25T15:29:11.892Z,1018.91
2023-01-25T15:30:11.885Z,1018.90
2023-01-25T15:31:11.813Z,1018.89
2023-01-25T15:32:11.625Z,1018.88
2023-01-25T15:33:11.632Z,1018.90
2023-01-25T15:34:11.743Z,1018.90
2023-01-25T15:35:11.593Z,1018.89
2023-01-25T15:36:11.591Z,1018.89
2023-01-25T15:37:11.707Z,1018.88
2023-01-25T15:38:11.549Z,1018.86
2023-01-25T15:39:11.576Z,1018.85
2023-01-25T15:40:11.686Z,1018.82
2023-01-25T15:41:11.616Z,1018.81
2023-01-25T15:42:10.540Z,1018.80
2023-01-25T15:43:11.520Z,1018.79
2023-01-25T15:44:11.578Z,1018.79
2023-01-25T15:45:11.486Z,1018.79
2023-01-25T15:46:11.544Z,1018.78
2023-01-25T15:47:11.471Z,1018.79
2023-01-25T15:48:11.480Z,1018.78
2023-01-25T15:49:11.520Z,1018.78
2023-01-25T15:50:11.853Z,1018.78
2023-01-25T15:51:11.440Z,1018.79
2023-01-25T15:52:11.416Z,1018.79
2023-01-25T15:53:11.424Z,1018.79
2023-01-25T15:54:11.430Z,1018.77
2023-01-25T15:55:11.447Z,1018.77
2023-01-25T15:56:11.375Z,1018.76
2023-01-25T15:57:11.379Z,1018.75
2023-01-25T15:58:11.361Z,1018.74
2023-01-25T15:59:11.414Z,1018.74
2023-01-25T16:00:11.787Z,1018.74
2023-01-25T16:01:11.398Z,1018.74
2023-01-25T16:02:11.378Z,1018.74
2023-01-25T16:03:11.322Z,1018.74
2023-01-25T16:04:11.395Z,1018.73
2023-01-25T16:05:11.316Z,1018.72
2023-01-25T16:06:11.316Z,1018.72
2023-01-25T16:07:12.262Z,1018.71
2023-01-25T16:08:11.260Z,1018.70
2023-01-25T16:09:11.272Z,1018.71
2023-01-25T16:10:11.637Z,1018.71
2023-01-25T16:11:11.254Z,1018.71
2023-01-25T16:12:11.247Z,1018.72
2023-01-25T16:13:11.235Z,1018.71
2023-01-25T16:14:11.237Z,1018.72
2023-01-25T16:15:11.214Z,1018.73
2023-01-25T16:16:11.225Z,1018.73
2023-01-25T16:17:11.232Z,1018.73
2023-01-25T16:18:11.223Z,1018.73
2023-01-25T16:19:11.177Z,1018.72
2023-01-25T16:20:11.495Z,1018.71
2023-01-25T16:21:12.409Z,1018.70
2023-01-25T16:22:11.361Z,1018.69
2023-01-25T16:23:11.135Z,1018.70
2023-01-25T16:24:11.337Z,1018.71
2023-01-25T16:25:11.109Z,1018.71
2023-01-25T16:26:11.114Z,1018.72
2023-01-25T16:27:11.114Z,1018.74
2023-01-25T16:28:11.126Z,1018.73
2023-01-25T16:29:11.136Z,1018.75
2023-01-25T16:30:11.523Z,1018.77
2023-01-25T16:31:16.774Z,1018.77
2023-01-25T16:32:11.083Z,1018.77
2023-01-25T16:33:11.027Z,1018.78
2023-01-25T16:34:11.015Z,1018.77
2023-01-25T16:35:11.031Z,1018.75
2023-01-25T16:36:10.982Z,1018.73
2023-01-25T16:37:11.012Z,1018.73
2023-01-25T16:38:11.004Z,1018.72
2023-01-25T16:39:11.022Z,1018.71
2023-01-25T16:40:11.620Z,1018.70
2023-01-25T16:41:11.200Z,1018.69
2023-01-25T16:42:11.065Z,1018.69
2023-01-25T16:43:10.937Z,1018.70
2023-01-25T16:44:10.980Z,1018.71
2023-01-25T16:45:10.973Z,1018.70
2023-01-25T16:46:11.013Z,1018.69
2023-01-25T16:47:10.932Z,1018.70
2023-01-25T19:50:08.128Z,1016.95
2023-01-25T19:51:09.157Z,1016.95
2023-01-25T19:52:09.018Z,1016.95
2023-01-25T19:53:09.071Z,1016.95
2023-01-25T19:54:09.051Z,1016.93
2023-01-25T19:55:09.529Z,1016.91
2023-01-25T19:56:09.056Z,1016.90
2023-01-25T19:57:09.034Z,1016.88
2023-01-25T19:58:09.067Z,1016.87
2023-01-25T19:59:09.027Z,1016.85
2023-01-25T20:00:09.220Z,1016.84
2023-01-25T20:01:09.086Z,1016.83
2023-01-25T20:02:09.055Z,1016.82
2023-01-25T20:03:16.199Z,1016.80
2023-01-25T20:04:08.995Z,1016.79
2023-01-25T20:05:09.386Z,1016.79
2023-01-25T20:06:08.939Z,1016.78
2023-01-25T20:07:08.991Z,1016.78
2023-01-25T20:08:08.973Z,1016.77
2023-01-25T20:09:08.940Z,1016.77
2023-01-25T20:10:08.939Z,1016.78
2023-01-25T20:11:08.901Z,1016.77
2023-01-25T20:12:08.851Z,1016.77
2023-01-25T20:13:08.944Z,1016.75
2023-01-25T20:14:09.119Z,1016.73
2023-01-25T20:15:09.307Z,1016.72
2023-01-25T20:16:08.924Z,1016.71
2023-01-25T20:17:08.915Z,1016.69
2023-01-25T20:18:08.836Z,1016.68
2023-01-25T20:19:08.827Z,1016.68
2023-01-25T20:20:08.833Z,1016.67
2023-01-25T20:21:08.852Z,1016.66
2023-01-25T20:22:08.868Z,1016.66
2023-01-25T20:23:08.783Z,1016.65
2023-01-25T20:24:08.847Z,1016.65
2023-01-25T20:25:09.175Z,1016.64
2023-01-25T20:26:08.752Z,1016.65
2023-01-25T20:27:08.758Z,1016.65
2023-01-25T20:28:08.766Z,1016.67
2023-01-25T20:29:08.753Z,1016.68
2023-01-25T20:30:08.763Z,1016.70
2023-01-25T20:31:08.837Z,1016.71
2023-01-25T20:32:09.842Z,1016.72
2023-01-25T20:33:08.720Z,1016.72
2023-01-25T20:34:08.689Z,1016.73
2023-01-25T20:35:09.073Z,1016.73
2023-01-25T20:36:08.679Z,1016.74
2023-01-25T20:37:09.464Z,1016.73
2023-01-25T20:38:08.789Z,1016.72
2023-01-25T20:39:08.645Z,1016.71
2023-01-25T20:40:08.616Z,1016.69
2023-01-25T20:41:08.627Z,1016.67
2023-01-25T20:42:08.653Z,1016.65
2023-01-25T20:43:08.599Z,1016.65
2023-01-25T20:44:08.863Z,1016.63
2023-01-25T20:45:08.985Z,1016.64
2023-01-25T20:46:08.522Z,1016.63
2023-01-25T20:47:08.591Z,1016.64
2023-01-25T20:48:08.533Z,1016.64
2023-01-25T20:49:08.521Z,1016.63
2023-01-25T20:50:08.519Z,1016.62
2023-01-25T20:51:08.537Z,1016.61
2023-01-25T20:52:08.492Z,1016.59
2023-01-25T20:53:08.526Z,1016.58
2023-01-25T20:54:08.489Z,1016.58
2023-01-25T20:55:09.128Z,1016.56
2023-01-25T20:56:08.505Z,1016.53
2023-01-25T20:57:08.479Z,1016.51
2023-01-25T20:58:08.452Z,1016.49
2023-01-25T20:59:08.464Z,1016.48
2023-01-25T21:00:08.403Z,1016.47
2023-01-25T21:01:08.541Z,1016.47
2023-01-25T21:02:08.511Z,1016.47
2023-01-25T21:03:08.407Z,1016.47
2023-01-25T21:04:08.387Z,1016.48
2023-01-25T21:05:08.735Z,1016.47
2023-01-25T21:06:08.392Z,1016.46
2023-01-25T21:07:08.445Z,1016.44
2023-01-25T21:08:08.339Z,1016.42
2023-01-25T21:09:08.329Z,1016.40
2023-01-25T21:10:08.345Z,1016.37
2023-01-25T21:11:08.374Z,1016.35
2023-01-25T21:12:08.354Z,1016.34
2023-01-25T21:13:08.303Z,1016.33
2023-01-25T21:14:08.356Z,1016.34
2023-01-25T21:15:08.523Z,1016.34
2023-01-25T21:16:08.528Z,1016.35
2023-01-25T21:17:08.287Z,1016.34
2023-01-25T21:18:08.265Z,1016.32
2023-01-25T21:19:08.417Z,1016.31
2023-01-25T21:20:08.211Z,1016.29
2023-01-25T21:21:08.208Z,1016.27
2023-01-25T21:22:08.315Z,1016.27
2023-01-25T21:23:08.188Z,1016.25
2023-01-25T21:24:08.253Z,1016.24
2023-01-25T21:25:08.450Z,1016.21
2023-01-25T21:26:08.206Z,1016.18
2023-01-25T21:27:08.139Z,1016.17
2023-01-25T21:28:08.163Z,1016.16
2023-01-25T21:29:08.145Z,1016.15
2023-01-25T21:30:08.144Z,1016.15
2023-01-25T21:31:08.213Z,1016.13
2023-01-25T21:32:08.153Z,1016.14
2023-01-25T21:33:08.160Z,1016.14
2023-01-25T21:34:08.081Z,1016.15
2023-01-25T21:35:08.463Z,1016.15
2023-01-25T21:36:08.103Z,1016.15
2023-01-25T21:37:08.090Z,1016.15
2023-01-25T21:38:08.070Z,1016.15
2023-01-25T21:39:08.057Z,1016.14
2023-01-25T21:40:08.015Z,1016.14
2023-01-25T21:41:08.035Z,1016.11
2023-01-25T21:42:08.020Z,1016.10
2023-01-25T21:43:08.030Z,1016.09
2023-01-25T21:44:08.028Z,1016.08
2023-01-25T21:45:08.114Z,1016.08
2023-01-25T21:46:07.953Z,1016.08
2023-01-25T21:47:28.909Z,1016.08
2023-01-25T21:48:07.952Z,1016.08
2023-01-25T21:49:07.961Z,1016.08
2023-01-25T21:50:07.919Z,1016.06
2023-01-25T21:51:07.926Z,1016.03
2023-01-25T21:52:07.902Z,1015.99
2023-01-25T21:53:07.919Z,1015.96
2023-01-25T21:54:07.893Z,1015.95
2023-01-25T21:55:07.907Z,1015.93
2023-01-25T21:56:07.845Z,1015.94
2023-01-25T21:57:07.845Z,1015.93
2023-01-25T21:58:07.911Z,1015.93
2023-01-25T21:59:07.821Z,1015.92
2023-01-25T22:00:08.197Z,1015.91
2023-01-25T22:01:07.895Z,1015.90
2023-01-25T22:02:07.824Z,1015.90
2023-01-25T22:03:07.846Z,1015.90
2023-01-25T22:04:07.783Z,1015.88
2023-01-25T22:05:07.810Z,1015.85
2023-01-25T22:06:07.751Z,1015.81
2023-01-25T22:07:07.754Z,1015.78
2023-01-25T22:08:07.764Z,1015.75
2023-01-25T22:09:07.740Z,1015.71
2023-01-25T22:10:07.813Z,1015.68
2023-01-25T22:11:07.757Z,1015.66
2023-01-25T22:12:07.722Z,1015.64
2023-01-25T22:13:07.685Z,1015.63
2023-01-25T22:14:07.723Z,1015.62
2023-01-25T22:15:07.918Z,1015.61
2023-01-25T22:16:07.730Z,1015.59
2023-01-25T22:17:07.646Z,1015.58
2023-01-25T22:18:07.621Z,1015.57
2023-01-25T22:19:07.646Z,1015.57
2023-01-25T22:20:07.671Z,1015.56
2023-01-25T22:21:07.633Z,1015.53
2023-01-25T22:22:07.628Z,1015.50
2023-01-25T22:23:07.601Z,1015.47
2023-01-25T22:24:07.634Z,1015.44
2023-01-25T22:25:07.589Z,1015.41
2023-01-25T22:26:07.601Z,1015.40
2023-01-25T22:27:07.591Z,1015.39
2023-01-25T22:28:07.528Z,1015.38
2023-01-25T22:29:07.572Z,1015.38
2023-01-25T22:30:07.801Z,1015.40
2023-01-25T22:31:07.657Z,1015.40
2023-01-25T22:32:07.503Z,1015.41
2023-01-25T22:33:07.509Z,1015.42
2023-01-25T22:34:07.494Z,1015.43
2023-01-25T22:35:07.465Z,1015.45
2023-01-25T22:36:07.452Z,1015.45
2023-01-25T22:37:07.462Z,1015.44
2023-01-25T22:38:07.487Z,1015.43
2023-01-25T22:39:07.444Z,1015.42
2023-01-25T22:40:07.434Z,1015.39
2023-01-25T22:41:07.457Z,1015.36
2023-01-25T22:42:07.642Z,1015.35
2023-01-25T22:43:07.386Z,1015.34
2023-01-25T22:44:07.398Z,1015.31
2023-01-25T22:45:07.421Z,1015.29
2023-01-25T22:46:07.428Z,1015.27
2023-01-25T22:47:07.343Z,1015.27
2023-01-25T22:48:07.345Z,1015.27
2023-01-25T22:49:07.349Z,1015.29
2023-01-25T22:50:07.334Z,1015.31
2023-01-25T22:51:07.330Z,1015.33
2023-01-25T22:52:07.309Z,1015.33
2023-01-25T22:53:07.286Z,1015.34
2023-01-25T22:54:07.280Z,1015.31
2023-01-25T22:55:07.327Z,1015.30
2023-01-25T22:56:07.273Z,1015.28
2023-01-25T22:57:07.283Z,1015.26
2023-01-25T22:58:07.278Z,1015.24
2023-01-25T22:59:07.477Z,1015.22
2023-01-25T23:00:07.238Z,1015.20
2023-01-25T23:01:07.233Z,1015.16
2023-01-25T23:02:07.208Z,1015.15
2023-01-25T23:03:07.246Z,1015.12
2023-01-25T23:04:07.175Z,1015.10
2023-01-25T23:05:07.178Z,1015.10
2023-01-25T23:06:07.235Z,1015.10
2023-01-25T23:07:07.146Z,1015.13
2023-01-25T23:08:07.147Z,1015.15
2023-01-25T23:09:07.179Z,1015.16
2023-01-25T23:10:07.165Z,1015.18
2023-01-25T23:11:07.129Z,1015.18